Time;durP1;ratioP1;P1;durP2;ratioP2;P2;SDS_P1;SDS_P2;PMS_P1;PMS_P2;Temp;Humidity;BMP_temperature;BMP_pressure;BME280_temperature;BME280_humidity;BME280_pressure;Samples;Min_cycle;Max_cycle;Signal;HPM_P1;HPM_P2
2023/04/01 00:02:21;;;;;;;;;;;8.90;91.40;;;;;;6158249;23;19905;-96
2023/04/01 00:04:52;;;;;;;;;;;8.90;91.30;;;;;;6181735;23;19912;-96
2023/04/01 00:07:19;;;;;;;;;;;8.90;90.50;;;;;;6155850;23;19927;-96
2023/04/01 00:09:46;;;;;;;;;;;8.80;90.40;;;;;;6156343;23;19889;-96
2023/04/01 00:12:13;;;;;;;;;;;8.60;89.60;;;;;;6155559;23;19911;-96
2023/04/01 00:14:39;;;;;;;;;;;8.40;89.40;;;;;;6156062;23;19905;-96
2023/04/01 00:17:08;;;;;;;;;;;8.40;89.70;;;;;;6154999;23;19905;-96
2023/04/01 00:19:35;;;;;;;;;;;8.40;90.30;;;;;;6155221;23;19936;-96
2023/04/01 00:22:02;;;;;;;;;;;8.20;91.40;;;;;;6155441;23;19905;-96
2023/04/01 00:24:29;;;;;;;;;;;8.30;91.20;;;;;;6154243;23;19904;-96
2023/04/01 00:26:56;;;;;;;;;;;8.20;91.10;;;;;;6147945;23;19920;-96
2023/04/01 00:29:23;;;;;;;;;;;8.10;91.50;;;;;;6149036;23;19905;-96
2023/04/01 00:31:50;;;;;;;;;;;8.10;92.90;;;;;;6148766;23;19905;-96
2023/04/01 00:34:20;;;;;;;;;;;8.00;93.50;;;;;;6150738;23;19905;-96
2023/04/01 00:36:52;;;;;;;;;;;7.90;93.70;;;;;;6150934;23;19905;-96
2023/04/01 00:39:20;;;;;;;;;;;7.90;93.90;;;;;;6151061;23;19915;-96
2023/04/01 00:41:49;;;;;;;;;;;7.90;93.80;;;;;;6126145;23;19949;-96
2023/04/01 00:44:20;;;;;;;;;;;7.90;94.40;;;;;;6148881;23;19909;-96
2023/04/01 00:46:47;;;;;;;;;;;7.90;94.10;;;;;;6149412;23;19941;-96
2023/04/01 00:49:15;;;;;;;;;;;7.90;94.10;;;;;;6149787;23;19945;-96
2023/04/01 00:51:42;;;;;;;;;;;7.90;94.30;;;;;;6150185;23;19905;-96
2023/04/01 00:54:10;;;;;;;;;;;8.00;94.30;;;;;;6149977;23;19905;-96
2023/04/01 00:56:41;;;;;;;;;;;8.10;94.40;;;;;;6150247;23;19909;-96
2023/04/01 00:59:11;;;;;;;;;;;8.20;94.60;;;;;;6152083;23;19909;-96
2023/04/01 01:01:39;;;;;;;;;;;8.00;94.10;;;;;;6149807;23;19905;-96
2023/04/01 01:04:05;;;;;;;;;;;7.90;93.90;;;;;;6149921;23;19916;-96
2023/04/01 01:06:38;;;;;;;;;;;7.90;95.10;;;;;;6149232;23;19912;-96
2023/04/01 01:09:07;;;;;;;;;;;7.80;94.50;;;;;;6148940;23;19905;-97
2023/04/01 01:11:44;;;;;;;;;;;7.80;95.00;;;;;;6150366;23;19960;-96
2023/04/01 01:14:21;;;;;;;;;;;7.80;94.80;;;;;;6146294;23;19905;-96
2023/04/01 01:16:55;;;;;;;;;;;7.70;94.20;;;;;;6151479;23;19957;-96
2023/04/01 01:19:50;;;;;;;;;;;7.60;94.00;;;;;;6150400;23;19893;-96
2023/04/01 01:22:42;;;;;;;;;;;7.40;93.80;;;;;;6151408;23;19905;-96
2023/04/01 01:25:26;;;;;;;;;;;7.40;93.60;;;;;;6152479;23;19905;-96
2023/04/01 01:28:12;;;;;;;;;;;7.30;93.40;;;;;;6150264;23;19936;-96
2023/04/01 01:30:52;;;;;;;;;;;7.10;93.30;;;;;;6150994;23;19916;-96
2023/04/01 01:33:18;;;;;;;;;;;6.90;93.30;;;;;;6150444;23;19905;-96
2023/04/01 01:35:48;;;;;;;;;;;6.80;93.20;;;;;;6145694;23;19916;-96
2023/04/01 01:38:18;;;;;;;;;;;6.80;93.30;;;;;;6152959;23;19941;-96
2023/04/01 01:40:53;;;;;;;;;;;6.90;93.70;;;;;;6154173;23;19905;-96
2023/04/01 01:43:22;;;;;;;;;;;6.90;93.80;;;;;;6153246;23;19912;-96
2023/04/01 01:45:52;;;;;;;;;;;6.90;94.00;;;;;;6153726;23;19928;-96
2023/04/01 01:48:21;;;;;;;;;;;7.00;94.40;;;;;;6153278;23;19921;-96
2023/04/01 01:50:50;;;;;;;;;;;7.20;95.10;;;;;;6154306;23;19948;-96
2023/04/01 01:53:17;;;;;;;;;;;7.30;94.80;;;;;;6153261;23;19889;-96
2023/04/01 01:55:46;;;;;;;;;;;7.30;94.60;;;;;;6155093;23;19905;-96
2023/04/01 01:58:19;;;;;;;;;;;7.30;94.40;;;;;;6153643;23;19893;-96
2023/04/01 02:01:06;;;;;;;;;;;7.30;94.40;;;;;;6155525;23;19896;-96
2023/04/01 02:03:36;;;;;;;;;;;7.30;94.30;;;;;;6154325;23;19896;-96
2023/04/01 02:06:04;;;;;;;;;;;7.30;94.30;;;;;;6154684;23;19904;-96
2023/04/01 02:08:54;;;;;;;;;;;7.30;94.30;;;;;;6155306;23;19897;-97
2023/04/01 02:11:33;;;;;;;;;;;7.40;94.40;;;;;;6144068;23;19905;-96
2023/04/01 02:14:25;;;;;;;;;;;7.50;94.70;;;;;;6153193;23;19912;-96
2023/04/01 02:17:06;;;;;;;;;;;7.60;94.60;;;;;;6152592;23;19937;-96
2023/04/01 02:19:38;;;;;;;;;;;7.80;94.60;;;;;;6155778;23;19901;-96
2023/04/01 02:22:09;;;;;;;;;;;7.90;94.40;;;;;;6153191;23;19909;-96
2023/04/01 02:24:45;;;;;;;;;;;7.90;94.20;;;;;;6154351;23;19928;-96
2023/04/01 02:27:32;;;;;;;;;;;8.00;94.20;;;;;;6176525;23;19928;-96
2023/04/01 02:30:11;;;;;;;;;;;8.20;94.20;;;;;;6183083;23;19936;-96
2023/04/01 02:32:39;;;;;;;;;;;8.20;94.00;;;;;;6159416;23;19927;-96
2023/04/01 02:35:10;;;;;;;;;;;8.10;93.80;;;;;;6183253;23;19911;-96
2023/04/01 02:37:42;;;;;;;;;;;8.20;93.80;;;;;;6159776;23;19905;-96
2023/04/01 02:40:25;;;;;;;;;;;8.20;93.80;;;;;;6184943;23;19892;-97
2023/04/01 02:42:57;;;;;;;;;;;8.20;93.70;;;;;;6180936;23;19888;-96
2023/04/01 02:45:32;;;;;;;;;;;8.00;92.90;;;;;;6158555;23;19941;-96
2023/04/01 02:48:00;;;;;;;;;;;8.00;93.00;;;;;;6159601;23;19904;-96
2023/04/01 02:50:32;;;;;;;;;;;8.00;93.00;;;;;;6184802;23;19948;-96
2023/04/01 02:53:11;;;;;;;;;;;8.00;92.90;;;;;;6185199;23;19915;-96
2023/04/01 02:55:41;;;;;;;;;;;8.00;92.70;;;;;;6158888;23;19904;-96
2023/04/01 02:58:16;;;;;;;;;;;7.90;92.90;;;;;;6184193;23;19909;-96
2023/04/01 03:00:51;;;;;;;;;;;8.00;92.90;;;;;;6185004;23;19908;-96
2023/04/01 03:03:20;;;;;;;;;;;7.90;92.80;;;;;;6184518;23;19896;-96
2023/04/01 03:05:55;;;;;;;;;;;7.90;92.80;;;;;;6159435;23;19953;-96
2023/04/01 03:08:29;;;;;;;;;;;7.90;92.90;;;;;;6184094;23;19909;-96
2023/04/01 03:10:58;;;;;;;;;;;7.80;92.80;;;;;;6152785;23;19888;-96
2023/04/01 03:13:33;;;;;;;;;;;7.80;92.50;;;;;;6184830;23;19900;-96
2023/04/01 03:16:05;;;;;;;;;;;7.80;92.60;;;;;;6184493;23;19940;-96
2023/04/01 03:18:34;;;;;;;;;;;7.70;92.60;;;;;;6184389;23;19900;-96
2023/04/01 03:21:17;;;;;;;;;;;7.70;92.30;;;;;;6183926;23;19928;-96
2023/04/01 03:23:52;;;;;;;;;;;7.70;92.60;;;;;;6177185;23;19905;-96
2023/04/01 03:26:26;;;;;;;;;;;7.50;92.50;;;;;;6184381;22;19928;-96
2023/04/01 03:29:01;;;;;;;;;;;7.60;92.70;;;;;;6154488;23;19908;-97
2023/04/01 03:31:37;;;;;;;;;;;7.70;92.60;;;;;;6153973;23;19932;-96
2023/04/01 03:34:04;;;;;;;;;;;7.70;92.50;;;;;;6128780;23;19912;-96
2023/04/01 03:36:33;;;;;;;;;;;7.70;92.40;;;;;;6128501;23;19905;-96
2023/04/01 03:39:00;;;;;;;;;;;7.70;92.50;;;;;;6128231;23;19909;-96
2023/04/01 03:41:38;;;;;;;;;;;7.60;92.70;;;;;;6153485;23;19897;-96
2023/04/01 03:44:05;;;;;;;;;;;7.60;92.60;;;;;;6127702;23;19912;-96
2023/04/01 03:46:34;;;;;;;;;;;7.60;92.70;;;;;;6127700;23;19905;-96
2023/04/01 03:49:01;;;;;;;;;;;7.60;92.60;;;;;;6127379;23;19932;-96
2023/04/01 03:51:32;;;;;;;;;;;7.40;92.10;;;;;;6127713;23;20329;-96
2023/04/01 03:54:03;;;;;;;;;;;7.40;92.20;;;;;;6101355;23;19916;-96
2023/04/01 03:56:29;;;;;;;;;;;7.20;91.60;;;;;;6127594;23;19905;-96
2023/04/01 03:58:56;;;;;;;;;;;6.90;89.70;;;;;;6126807;23;19933;-96
2023/04/01 04:01:22;;;;;;;;;;;6.80;90.70;;;;;;6125258;23;19949;-96
2023/04/01 04:03:52;;;;;;;;;;;6.60;91.10;;;;;;6125613;23;19912;-96
2023/04/01 04:06:18;;;;;;;;;;;6.60;92.10;;;;;;6126286;23;20267;-96
2023/04/01 04:08:45;;;;;;;;;;;6.60;92.10;;;;;;6151250;23;19905;-96
2023/04/01 04:11:11;;;;;;;;;;;6.70;92.20;;;;;;6124747;23;19928;-96
2023/04/01 04:13:41;;;;;;;;;;;6.60;92.40;;;;;;6148416;23;19920;-96
2023/04/01 04:16:09;;;;;;;;;;;6.50;93.00;;;;;;6126438;23;19905;-96
2023/04/01 04:18:39;;;;;;;;;;;6.50;93.40;;;;;;6152443;23;19904;-96
2023/04/01 04:21:16;;;;;;;;;;;6.50;93.70;;;;;;6126951;23;19909;-96
2023/04/01 04:23:46;;;;;;;;;;;6.60;93.60;;;;;;6152764;23;19897;-96
2023/04/01 04:26:14;;;;;;;;;;;6.50;92.90;;;;;;6126808;23;19905;-96
2023/04/01 04:28:41;;;;;;;;;;;6.50;93.00;;;;;;6179418;23;19917;-96
2023/04/01 04:31:08;;;;;;;;;;;6.50;93.10;;;;;;6155583;23;19928;-96
2023/04/01 04:33:34;;;;;;;;;;;6.50;93.40;;;;;;6153460;23;19925;-96
2023/04/01 04:36:00;;;;;;;;;;;6.40;93.10;;;;;;6152894;23;19911;-95
2023/04/01 04:38:27;;;;;;;;;;;6.30;93.30;;;;;;6153609;23;20239;-96
2023/04/01 04:40:54;;;;;;;;;;;6.40;93.40;;;;;;6155253;23;19926;-96
2023/04/01 04:43:21;;;;;;;;;;;6.30;93.40;;;;;;6156042;23;19905;-96
2023/04/01 04:45:47;;;;;;;;;;;6.10;93.40;;;;;;6156125;23;19905;-96
2023/04/01 04:48:18;;;;;;;;;;;6.10;93.80;;;;;;6183880;23;19905;-96
2023/04/01 04:50:47;;;;;;;;;;;6.00;94.10;;;;;;6157913;23;19912;-96
2023/04/01 04:53:16;;;;;;;;;;;6.00;94.30;;;;;;6182056;23;19909;-96
2023/04/01 04:55:49;;;;;;;;;;;5.90;94.40;;;;;;6154569;23;19905;-96
2023/04/01 04:58:16;;;;;;;;;;;5.90;94.50;;;;;;6153972;23;19919;-96
2023/04/01 05:00:43;;;;;;;;;;;5.90;94.60;;;;;;6153723;23;19905;-96
2023/04/01 05:03:10;;;;;;;;;;;5.70;94.60;;;;;;6153285;23;19924;-96
2023/04/01 05:05:36;;;;;;;;;;;5.50;94.40;;;;;;6152227;23;19916;-96
2023/04/01 05:08:02;;;;;;;;;;;5.30;94.90;;;;;;6150711;23;19928;-96
2023/04/01 05:10:28;;;;;;;;;;;5.30;95.20;;;;;;6177191;23;19904;-96
2023/04/01 05:12:54;;;;;;;;;;;5.40;95.10;;;;;;6149739;23;19952;-96
2023/04/01 05:15:20;;;;;;;;;;;5.40;95.00;;;;;;6176129;23;19912;-96
2023/04/01 05:17:47;;;;;;;;;;;5.40;94.80;;;;;;6178042;23;19908;-96
2023/04/01 05:20:13;;;;;;;;;;;5.40;94.70;;;;;;6152568;23;19905;-96
2023/04/01 05:22:39;;;;;;;;;;;5.30;94.60;;;;;;6152835;23;20342;-96
2023/04/01 05:25:06;;;;;;;;;;;5.40;94.70;;;;;;6151100;23;19908;-96
2023/04/01 05:27:31;;;;;;;;;;;5.40;94.80;;;;;;6167639;23;19920;-96
2023/04/01 05:29:58;;;;;;;;;;;5.40;94.80;;;;;;6151694;23;20235;-96
2023/04/01 05:32:24;;;;;;;;;;;5.30;95.10;;;;;;6150289;23;19936;-96
2023/04/01 05:34:51;;;;;;;;;;;5.40;95.20;;;;;;6151680;23;19928;-96
2023/04/01 05:37:17;;;;;;;;;;;5.60;95.20;;;;;;6149805;23;19953;-96
2023/04/01 05:39:43;;;;;;;;;;;5.80;95.20;;;;;;6175913;23;19909;-96
2023/04/01 05:42:09;;;;;;;;;;;5.90;95.20;;;;;;6150122;23;19908;-96
2023/04/01 05:44:35;;;;;;;;;;;5.90;95.00;;;;;;6151626;23;19928;-96
2023/04/01 05:47:02;;;;;;;;;;;6.00;95.30;;;;;;6149541;23;19905;-96
2023/04/01 05:49:28;;;;;;;;;;;6.10;95.20;;;;;;6149165;23;19953;-96
2023/04/01 05:51:54;;;;;;;;;;;6.20;95.20;;;;;;6150060;23;19928;-96
2023/04/01 05:54:21;;;;;;;;;;;6.20;94.60;;;;;;6148096;23;19912;-96
2023/04/01 05:56:47;;;;;;;;;;;6.20;94.70;;;;;;6147282;23;20307;-96
2023/04/01 05:59:13;;;;;;;;;;;6.20;94.60;;;;;;6150235;23;19933;-96
2023/04/01 06:01:39;;;;;;;;;;;6.40;94.50;;;;;;6145213;23;19913;-96
2023/04/01 06:04:05;;;;;;;;;;;6.40;94.30;;;;;;6121955;23;19912;-96
2023/04/01 06:06:32;;;;;;;;;;;6.40;94.60;;;;;;6147745;23;19950;-96
2023/04/01 06:09:01;;;;;;;;;;;6.60;94.50;;;;;;6120665;23;19928;-96
2023/04/01 06:11:33;;;;;;;;;;;6.60;94.20;;;;;;6120883;23;19897;-96
2023/04/01 06:14:03;;;;;;;;;;;6.80;94.20;;;;;;6148106;23;19912;-96
2023/04/01 06:16:35;;;;;;;;;;;6.90;94.20;;;;;;6122083;23;19940;-96
2023/04/01 06:19:10;;;;;;;;;;;7.00;94.40;;;;;;6121900;23;19909;-96
2023/04/01 06:21:43;;;;;;;;;;;7.20;94.40;;;;;;6122346;23;19905;-96
2023/04/01 06:24:11;;;;;;;;;;;7.30;94.20;;;;;;6148158;23;19905;-96
2023/04/01 06:26:39;;;;;;;;;;;7.40;94.10;;;;;;6124685;23;19944;-96
2023/04/01 06:29:25;;;;;;;;;;;7.50;93.60;;;;;;6123822;23;19905;-96
2023/04/01 06:32:06;;;;;;;;;;;7.40;93.30;;;;;;6149201;23;19912;-96
2023/04/01 06:34:32;;;;;;;;;;;7.70;93.10;;;;;;6124312;23;20311;-96
2023/04/01 06:37:01;;;;;;;;;;;7.80;93.10;;;;;;6124950;23;19954;-96
2023/04/01 06:39:54;;;;;;;;;;;7.90;93.10;;;;;;6126517;23;19956;-96
2023/04/01 06:42:32;;;;;;;;;;;7.90;92.90;;;;;;6102149;23;19913;-96
2023/04/01 06:45:17;;;;;;;;;;;8.10;92.90;;;;;;6126862;23;19912;-96
2023/04/01 06:47:43;;;;;;;;;;;8.30;93.00;;;;;;6127811;23;19969;-96
2023/04/01 06:50:20;;;;;;;;;;;8.50;93.00;;;;;;6129674;23;19909;-96
2023/04/01 06:58:06;;;;;;;;;;;9.00;92.80;;;;;;6169756;23;19928;-96
2023/04/01 07:00:47;;;;;;;;;;;9.30;92.50;;;;;;6157399;23;19909;-96
2023/04/01 07:03:20;;;;;;;;;;;9.50;92.30;;;;;;6183439;23;19908;-96
2023/04/01 07:05:48;;;;;;;;;;;9.70;92.20;;;;;;6157678;23;19932;-96
2023/04/01 07:08:19;;;;;;;;;;;9.80;92.10;;;;;;6158407;23;19905;-96
2023/04/01 07:10:53;;;;;;;;;;;9.90;91.80;;;;;;6183487;23;19904;-96
2023/04/01 07:13:25;;;;;;;;;;;9.90;91.60;;;;;;6158275;23;19889;-96
2023/04/01 07:16:05;;;;;;;;;;;10.10;91.50;;;;;;6183768;23;19916;-96
2023/04/01 07:18:41;;;;;;;;;;;10.10;90.90;;;;;;6179538;23;19917;-96
2023/04/01 07:21:14;;;;;;;;;;;10.30;91.00;;;;;;6158923;23;19912;-96
2023/04/01 07:23:45;;;;;;;;;;;10.40;90.90;;;;;;6183091;23;19905;-96
2023/04/01 07:26:21;;;;;;;;;;;10.50;91.10;;;;;;6155916;23;19948;-96
2023/04/01 07:28:55;;;;;;;;;;;10.50;91.10;;;;;;6183447;23;19928;-96
2023/04/01 07:31:32;;;;;;;;;;;10.80;91.30;;;;;;6133772;23;19912;-96
2023/04/01 07:34:17;;;;;;;;;;;10.80;91.10;;;;;;6158027;23;19905;-96
2023/04/01 07:37:01;;;;;;;;;;;10.90;91.30;;;;;;6158460;23;19909;-96
2023/04/01 07:39:38;;;;;;;;;;;11.00;91.40;;;;;;6178725;23;19932;-96
